createdAt,value
2018-12-16T00:00:19.321Z,37.4
2018-12-16T00:02:18.970Z,43
2018-12-16T00:04:18.562Z,41.8
2018-12-16T00:06:18.841Z,40.7
2018-12-16T00:08:19.468Z,47.7
2018-12-16T00:10:19.629Z,51.2
2018-12-16T00:12:19.243Z,41.5
2018-12-16T00:14:18.887Z,45.6
2018-12-16T00:16:18.666Z,45.9
2018-12-16T00:18:19.381Z,38.1
2018-12-16T00:20:19.056Z,53.4
2018-12-16T00:22:18.705Z,43.7
2018-12-16T00:24:19.321Z,45.8
2018-12-16T00:26:19.062Z,45.3
2018-12-16T00:28:18.690Z,39.6
2018-12-16T00:30:19.325Z,55.3
2018-12-16T00:32:18.937Z,51.8
2018-12-16T00:34:19.565Z,44
2018-12-16T00:36:18.836Z,47
2018-12-16T00:38:19.441Z,41
2018-12-16T00:40:19.558Z,35.4
2018-12-16T00:42:19.164Z,47.9
2018-12-16T00:44:18.777Z,45.6
2018-12-16T00:46:18.578Z,42.7
2018-12-16T00:48:19.218Z,41.2
2018-12-16T00:50:18.912Z,45.9
2018-12-16T00:52:19.659Z,40.6
2018-12-16T00:54:19.268Z,43.9
2018-12-16T00:56:19.485Z,42.1
2018-12-16T00:58:19.107Z,45.9
2018-12-16T01:00:18.766Z,41.3
2018-12-16T01:02:19.386Z,41.6
2018-12-16T01:04:19.017Z,43.8
2018-12-16T01:06:19.284Z,39.4
2018-12-16T01:08:18.941Z,40.2
2018-12-16T01:10:19.117Z,47.9
2018-12-16T01:12:18.753Z,41.1
2018-12-16T01:14:19.371Z,47.6
2018-12-16T01:16:18.643Z,44.2
2018-12-16T01:18:19.341Z,46.5
2018-12-16T01:20:18.963Z,44.1
2018-12-16T01:22:18.595Z,47.6
2018-12-16T01:24:19.259Z,50.9
2018-12-16T01:26:19.543Z,44.9
2018-12-16T01:28:19.182Z,49.9
2018-12-16T01:30:18.991Z,53.3
2018-12-16T01:32:18.601Z,37.1
2018-12-16T01:34:19.222Z,35.6
2018-12-16T01:36:18.590Z,42.6
2018-12-16T01:38:19.188Z,40
2018-12-16T01:40:19.337Z,36.8
2018-12-16T01:42:18.969Z,44.2
2018-12-16T01:44:18.601Z,33.3
2018-12-16T01:46:18.829Z,46.9
2018-12-16T01:48:19.457Z,42.6
2018-12-16T01:50:19.108Z,52.7
2018-12-16T01:52:18.714Z,42.8
2018-12-16T01:54:19.333Z,49.1
2018-12-16T01:56:19.545Z,43.4
2018-12-16T01:58:19.164Z,51.8
2018-12-16T02:00:18.824Z,46
2018-12-16T02:02:19.450Z,45.5
2018-12-16T02:04:19.099Z,53.2
2018-12-16T02:06:18.907Z,41.7
2018-12-16T02:08:19.523Z,39.7
2018-12-16T02:10:18.662Z,42.7
2018-12-16T02:12:19.323Z,39.9
2018-12-16T02:14:18.940Z,39
2018-12-16T02:16:19.176Z,52.9
2018-12-16T02:18:18.871Z,39.5
2018-12-16T02:20:19.492Z,47.4
2018-12-16T02:22:19.124Z,48
2018-12-16T02:24:18.723Z,57.1
2018-12-16T02:26:19.539Z,40.2
2018-12-16T02:28:19.166Z,40.2
2018-12-16T02:30:18.816Z,43.6
2018-12-16T02:32:19.424Z,40.1
2018-12-16T02:34:19.062Z,43.5
2018-12-16T02:36:19.349Z,38.8
2018-12-16T02:38:18.960Z,40
2018-12-16T02:40:19.070Z,35.4
2018-12-16T02:42:18.704Z,36.7
2018-12-16T02:44:19.321Z,41.7
2018-12-16T02:46:19.159Z,44.6
2018-12-16T02:48:18.749Z,39.4
2018-12-16T02:50:19.419Z,52.5
2018-12-16T02:52:19.023Z,42.3
2018-12-16T02:54:18.640Z,46.7
2018-12-16T02:56:19.385Z,40
2018-12-16T02:58:19.020Z,40.6
2018-12-16T03:00:18.728Z,36.4
2018-12-16T03:02:19.363Z,38.9
2018-12-16T03:04:18.984Z,36.9
2018-12-16T03:06:19.234Z,42.2
2018-12-16T03:08:18.866Z,42.8
2018-12-16T03:10:18.944Z,38.8
2018-12-16T03:12:18.591Z,33.9
2018-12-16T03:14:19.270Z,46.7
2018-12-16T03:16:19.036Z,47
2018-12-16T03:18:18.729Z,37.6
2018-12-16T03:20:19.379Z,40.6
2018-12-16T03:22:19.011Z,39.9
2018-12-16T03:24:18.678Z,36.9
2018-12-16T03:26:18.927Z,39.3
2018-12-16T03:28:19.565Z,39.7
2018-12-16T03:30:19.253Z,41
2018-12-16T03:32:18.962Z,32.9
2018-12-16T03:34:18.584Z,33.2
2018-12-16T03:36:19.323Z,40.4
2018-12-16T03:38:18.933Z,32.5
2018-12-16T03:40:18.994Z,29.4
2018-12-16T03:42:18.647Z,27.9
2018-12-16T03:44:19.290Z,31.8
2018-12-16T03:46:18.610Z,28
2018-12-16T03:48:19.245Z,24.2
2018-12-16T03:50:18.991Z,22.7
2018-12-16T03:52:18.609Z,30.8
2018-12-16T03:54:19.218Z,27.9
2018-12-16T03:56:18.978Z,25
2018-12-16T03:58:18.598Z,30.4
2018-12-16T04:00:19.255Z,34.3
2018-12-16T04:02:18.892Z,25.7
2018-12-16T04:04:19.489Z,30.2
2018-12-16T04:06:18.754Z,30.7
2018-12-16T04:08:19.359Z,39.3
2018-12-16T04:10:19.435Z,29.4
2018-12-16T04:12:19.067Z,34.6
2018-12-16T04:14:18.683Z,31.1
2018-12-16T04:16:18.894Z,25.5
2018-12-16T04:18:18.619Z,25.9
2018-12-16T04:20:19.264Z,25.5
2018-12-16T04:22:18.875Z,26.5
2018-12-16T04:24:19.490Z,28.6
2018-12-16T04:26:19.289Z,24
2018-12-16T04:28:18.892Z,26.2
2018-12-16T04:30:19.547Z,23.2
2018-12-16T04:32:19.157Z,25.4
2018-12-16T04:34:18.816Z,24.9
2018-12-16T04:36:19.167Z,28
2018-12-16T04:38:18.789Z,29.3
2018-12-16T04:40:18.901Z,26
2018-12-16T04:42:19.519Z,26
2018-12-16T04:44:19.116Z,20.7
2018-12-16T04:46:19.334Z,28.1
2018-12-16T04:48:18.958Z,24.7
2018-12-16T04:50:18.583Z,22.7
2018-12-16T04:52:19.219Z,21.7
2018-12-16T04:54:18.820Z,28.3
2018-12-16T04:56:19.073Z,23.8
2018-12-16T04:58:18.682Z,19.8
2018-12-16T05:00:19.306Z,25
2018-12-16T05:02:18.915Z,23.1
2018-12-16T05:04:19.540Z,22.1
2018-12-16T05:06:19.928Z,20.7
2018-12-16T05:08:19.548Z,24.1
2018-12-16T05:10:18.643Z,24.2
2018-12-16T05:12:19.242Z,15.8
2018-12-16T05:14:18.869Z,17.9
2018-12-16T05:16:19.075Z,20.1
2018-12-16T05:18:18.758Z,20.6
2018-12-16T05:20:19.352Z,17.9
2018-12-16T05:22:18.989Z,17.3
2018-12-16T05:24:18.584Z,16.4
2018-12-16T05:26:18.879Z,19
2018-12-16T05:28:19.496Z,16.6
2018-12-16T05:30:19.140Z,20
2018-12-16T05:32:18.733Z,27.8
2018-12-16T05:34:19.354Z,19.7
2018-12-16T05:36:18.600Z,19.5
2018-12-16T05:38:19.223Z,25.2
2018-12-16T05:40:19.432Z,16.6
2018-12-16T05:42:19.056Z,20.7
2018-12-16T05:44:18.690Z,23.6
2018-12-16T05:46:19.439Z,18.6
2018-12-16T05:48:19.066Z,19
2018-12-16T05:50:18.689Z,18.5
2018-12-16T05:52:19.301Z,18.7
2018-12-16T05:54:18.919Z,17.4
2018-12-16T05:56:18.608Z,19.2
2018-12-16T05:58:19.228Z,15
2018-12-16T06:00:18.974Z,21.4
2018-12-16T06:02:18.562Z,15.5
2018-12-16T06:04:19.159Z,20.3
2018-12-16T06:06:19.463Z,17.2
2018-12-16T06:08:19.110Z,14.7
2018-12-16T06:10:19.323Z,19
2018-12-16T06:12:18.940Z,18.2
2018-12-16T06:14:18.594Z,19.3
2018-12-16T06:16:19.335Z,21.6
2018-12-16T06:18:19.046Z,21.5
2018-12-16T06:20:18.675Z,20.2
2018-12-16T06:22:19.281Z,19.4
2018-12-16T06:24:18.899Z,15.3
2018-12-16T06:26:18.759Z,21
2018-12-16T06:28:19.389Z,22
2018-12-16T06:30:19.020Z,20.3
2018-12-16T06:32:18.615Z,18.8
2018-12-16T06:34:19.230Z,22.1
2018-12-16T06:36:19.481Z,13.3
2018-12-16T06:38:19.094Z,20.1
2018-12-16T06:40:19.217Z,17.7
2018-12-16T06:42:18.824Z,23.7
2018-12-16T06:44:19.444Z,20.8
2018-12-16T06:46:19.240Z,21.5
2018-12-16T06:48:19.148Z,19.1
2018-12-16T06:50:18.806Z,24.5
2018-12-16T06:52:19.440Z,24.3
2018-12-16T06:54:19.054Z,18.4
2018-12-16T06:56:18.868Z,19.5
2018-12-16T06:58:19.456Z,24.3
2018-12-16T07:00:19.100Z,25.6
2018-12-16T07:02:18.731Z,29.3
2018-12-16T07:04:19.357Z,22.1
2018-12-16T07:06:18.657Z,24.3
2018-12-16T07:08:19.269Z,17.4
2018-12-16T07:10:19.428Z,22.5
2018-12-16T07:12:19.090Z,22.6
2018-12-16T07:14:18.725Z,23.1
2018-12-16T07:16:19.007Z,20.1
2018-12-16T07:18:18.714Z,19.1
2018-12-16T07:20:19.416Z,21
2018-12-16T07:22:19.040Z,17.5
2018-12-16T07:24:18.664Z,15.7
2018-12-16T07:26:19.001Z,19.7
2018-12-16T07:28:18.679Z,23.6
2018-12-16T07:30:19.357Z,19.6
2018-12-16T07:32:18.986Z,19.7
2018-12-16T07:34:18.628Z,20.9
2018-12-16T07:36:19.452Z,13.6
2018-12-16T07:38:19.087Z,14.6
2018-12-16T07:40:19.255Z,23.4
2018-12-16T07:42:18.890Z,14
2018-12-16T07:44:19.624Z,16.2
2018-12-16T07:46:18.906Z,15.8
2018-12-16T07:48:19.542Z,23.1
2018-12-16T07:50:19.216Z,15
2018-12-16T07:52:18.927Z,15.2
2018-12-16T07:54:19.591Z,17.5
2018-12-16T07:56:19.493Z,17.5
2018-12-16T07:58:19.106Z,17.6
2018-12-16T08:00:18.743Z,17
2018-12-16T08:02:19.395Z,13.6
2018-12-16T08:04:19.043Z,14.4
2018-12-16T08:06:19.280Z,16.4
2018-12-16T08:08:18.909Z,15.1
2018-12-16T08:10:19.005Z,15.1
2018-12-16T08:12:18.614Z,17.7
2018-12-16T08:14:19.230Z,17.9
2018-12-16T08:16:19.036Z,20.9
2018-12-16T08:18:18.723Z,18.2
2018-12-16T08:20:19.364Z,18.9
2018-12-16T08:22:18.974Z,11.6
2018-12-16T08:24:23.544Z,16.9
2018-12-16T08:26:18.801Z,19.5
2018-12-16T08:28:19.439Z,19.4
2018-12-16T08:30:19.051Z,24.9
2018-12-16T08:32:18.698Z,16.2
2018-12-16T08:34:19.322Z,21.8
2018-12-16T08:36:19.128Z,17.2
2018-12-16T08:38:18.743Z,16.5
2018-12-16T08:40:18.856Z,19.6
2018-12-16T08:42:19.445Z,12.7
2018-12-16T08:44:19.048Z,13.1
2018-12-16T08:46:19.293Z,13.4
2018-12-16T08:48:18.926Z,32.9
2018-12-16T08:50:19.543Z,16.9
2018-12-16T08:52:19.125Z,21.6
2018-12-16T08:54:18.731Z,20.6
2018-12-16T08:56:19.438Z,25.4
2018-12-16T08:58:19.078Z,15.9
2018-12-16T09:00:18.803Z,17.9
2018-12-16T09:02:19.424Z,12.9
2018-12-16T09:04:19.046Z,16.4
2018-12-16T09:06:18.873Z,18.3
2018-12-16T09:08:19.492Z,19.2
2018-12-16T09:10:18.605Z,13.1
2018-12-16T09:12:19.697Z,20.2
2018-12-16T09:14:19.339Z,33.2
2018-12-16T09:16:19.545Z,16.5
2018-12-16T09:18:19.246Z,15.1
2018-12-16T09:20:18.870Z,14.4
2018-12-16T09:22:19.472Z,14.5
2018-12-16T09:24:19.096Z,17.3
2018-12-16T09:26:18.863Z,19.4
2018-12-16T09:28:19.499Z,15.7
2018-12-16T09:30:19.147Z,16.8
2018-12-16T09:32:18.777Z,10.5
2018-12-16T09:34:19.438Z,17
2018-12-16T09:36:18.735Z,15.9
2018-12-16T09:38:19.339Z,16
2018-12-16T09:40:19.418Z,23.7
2018-12-16T09:42:19.058Z,15.6
2018-12-16T09:44:18.677Z,13.8
2018-12-16T09:46:18.945Z,21.7
2018-12-16T09:48:18.553Z,11.6
2018-12-16T09:50:19.200Z,11.8
2018-12-16T09:52:18.824Z,17.8
2018-12-16T09:54:19.438Z,18.4
2018-12-16T09:56:18.708Z,13.9
2018-12-16T09:58:19.317Z,11.9
2018-12-16T10:00:19.051Z,16.7
2018-12-16T10:02:18.681Z,15.9
2018-12-16T10:04:19.290Z,17.6
2018-12-16T10:06:18.569Z,17
2018-12-16T10:08:19.178Z,15.8
2018-12-16T10:10:19.429Z,12.1
2018-12-16T10:12:19.027Z,14.2
2018-12-16T10:14:18.642Z,15.4
2018-12-16T10:16:19.359Z,16
2018-12-16T10:18:19.034Z,14.4
2018-12-16T10:20:18.696Z,10.7
2018-12-16T10:22:19.320Z,13.1
2018-12-16T10:24:18.935Z,13.7
2018-12-16T10:26:19.212Z,9.6
2018-12-16T10:28:18.845Z,16.9
2018-12-16T10:30:19.585Z,14.7
2018-12-16T10:32:19.188Z,12.5
2018-12-16T10:34:18.816Z,15.6
2018-12-16T10:36:18.610Z,14.6
2018-12-16T10:38:19.224Z,12
2018-12-16T10:40:19.319Z,11.2
2018-12-16T10:42:18.923Z,15
2018-12-16T10:44:19.541Z,11.1
2018-12-16T10:46:19.310Z,19.4
2018-12-16T10:48:18.935Z,16.1
2018-12-16T10:50:19.587Z,13.6
2018-12-16T10:52:19.212Z,19.4
2018-12-16T10:54:18.829Z,14.2
2018-12-16T10:56:18.580Z,13.3
2018-12-16T10:58:19.173Z,18.1
2018-12-16T11:00:18.800Z,13.2
2018-12-16T11:02:19.429Z,19
2018-12-16T11:04:19.049Z,12.1
2018-12-16T11:06:18.801Z,11.3
2018-12-16T11:08:19.431Z,11.2
2018-12-16T11:10:19.561Z,13.1
2018-12-16T11:12:19.192Z,14.8
2018-12-16T11:14:18.819Z,17.2
2018-12-16T11:16:19.266Z,14.8
2018-12-16T11:18:18.974Z,13.8
2018-12-16T11:20:18.723Z,13.8
2018-12-16T11:22:19.346Z,13.7
2018-12-16T11:24:18.983Z,8.3
2018-12-16T11:26:18.910Z,10.5
2018-12-16T11:28:19.517Z,10.9
2018-12-16T11:30:19.139Z,11.1
2018-12-16T11:32:18.743Z,9.5
2018-12-16T11:34:19.389Z,16.1
2018-12-16T11:36:18.811Z,13.3
2018-12-16T11:38:19.426Z,15.4
2018-12-16T11:40:19.504Z,16.1
2018-12-16T11:42:19.133Z,15.4
2018-12-16T11:44:18.791Z,17.8
2018-12-16T11:46:18.570Z,16.1
2018-12-16T11:48:19.196Z,11.4
2018-12-16T11:50:18.823Z,12.2
2018-12-16T11:52:19.455Z,9.4
2018-12-16T11:54:19.067Z,11.2
2018-12-16T11:56:18.827Z,9.6
2018-12-16T11:58:19.438Z,19.9
2018-12-16T12:00:19.093Z,14.8
2018-12-16T12:02:18.722Z,16.1
2018-12-16T12:04:19.342Z,8.8
2018-12-16T12:06:19.069Z,11.3
2018-12-16T12:08:18.677Z,14.8
2018-12-16T12:10:18.776Z,10.1
2018-12-16T12:12:19.422Z,11.4
2018-12-16T12:14:19.044Z,11.5
2018-12-16T12:16:19.264Z,9
2018-12-16T12:18:18.929Z,9.7
2018-12-16T12:20:19.562Z,9.8
2018-12-16T12:22:19.197Z,7.1
2018-12-16T12:24:18.820Z,7.5
2018-12-16T12:26:18.611Z,9.1
2018-12-16T12:28:19.275Z,13.5
2018-12-16T12:30:18.924Z,11.4
2018-12-16T12:32:19.573Z,14.2
2018-12-16T12:34:19.205Z,8.1
2018-12-16T12:36:18.962Z,13.9
2018-12-16T12:38:18.573Z,10.8
2018-12-16T12:40:18.639Z,10.6
2018-12-16T12:42:19.271Z,12.3
2018-12-16T12:44:18.883Z,11.6
2018-12-16T12:46:18.804Z,11.9
2018-12-16T12:48:19.413Z,9.2
2018-12-16T12:50:19.181Z,8.5
2018-12-16T12:52:18.785Z,10.7
2018-12-16T12:54:19.407Z,8.4
2018-12-16T12:56:18.650Z,9.4
2018-12-16T12:58:19.278Z,10
2018-12-16T13:00:18.907Z,7.6
2018-12-16T13:02:19.587Z,7
2018-12-16T13:04:19.214Z,9.8
2018-12-16T13:06:19.470Z,14.2
2018-12-16T13:08:19.062Z,11.3
2018-12-16T13:10:19.135Z,10.6
2018-12-16T13:12:18.768Z,12.2
2018-12-16T13:14:19.401Z,10.6
2018-12-16T13:16:19.172Z,11.3
2018-12-16T13:18:18.850Z,9.2
2018-12-16T13:20:19.467Z,10.8
2018-12-16T13:22:19.087Z,14.5
2018-12-16T13:24:18.720Z,16.3
2018-12-16T13:26:18.931Z,9.3
2018-12-16T13:28:19.590Z,11.8
2018-12-16T13:30:19.209Z,9.3
2018-12-16T13:32:18.863Z,10.4
2018-12-16T13:34:19.485Z,11.7
2018-12-16T13:36:18.703Z,10.5
2018-12-16T13:38:19.330Z,13.7
2018-12-16T13:40:19.381Z,13.3
2018-12-16T13:42:18.995Z,13.2
2018-12-16T13:44:18.627Z,8.8
2018-12-16T13:46:18.884Z,16.7
2018-12-16T13:48:19.509Z,10.5
2018-12-16T13:50:19.219Z,9.2
2018-12-16T13:52:18.822Z,9.5
2018-12-16T13:54:19.430Z,16.2
2018-12-16T13:56:18.711Z,13.6
2018-12-16T13:58:19.332Z,16.7
2018-12-16T14:00:18.948Z,10.8
2018-12-16T14:02:18.594Z,7.2
2018-12-16T14:04:19.191Z,8.2
2018-12-16T14:06:18.965Z,9.3
2018-12-16T14:08:18.599Z,12.4
2018-12-16T14:10:18.699Z,8.7
2018-12-16T14:12:19.327Z,10.4
2018-12-16T14:14:18.947Z,11.6
2018-12-16T14:16:18.688Z,13.7
2018-12-16T14:18:19.443Z,7.4
2018-12-16T14:20:19.079Z,10.1
2018-12-16T14:22:18.727Z,13.8
2018-12-16T14:24:19.337Z,11.2
2018-12-16T14:26:18.574Z,9.3
2018-12-16T14:28:19.200Z,14.7
2018-12-16T14:30:18.831Z,11.2
2018-12-16T14:32:19.427Z,10.8
2018-12-16T14:34:19.059Z,9.5
2018-12-16T14:36:18.868Z,11.8
2018-12-16T14:38:19.489Z,10.7
2018-12-16T14:40:19.568Z,12.6
2018-12-16T14:42:19.184Z,11.2
2018-12-16T14:44:18.828Z,11.8
2018-12-16T14:46:19.037Z,11.1
2018-12-16T14:48:18.636Z,10.2
2018-12-16T14:50:19.276Z,14.1
2018-12-16T14:52:18.886Z,16.5
2018-12-16T14:54:19.499Z,13.2
2018-12-16T14:56:19.079Z,11.8
2018-12-16T14:58:18.702Z,12.4
2018-12-16T15:00:19.372Z,10.8
2018-12-16T15:02:18.981Z,10.5
2018-12-16T15:04:18.586Z,15.7
2018-12-16T15:06:19.158Z,18.9
2018-12-16T15:08:18.770Z,13.2
2018-12-16T15:10:18.883Z,11.4
2018-12-16T15:12:19.489Z,11.1
2018-12-16T15:14:19.096Z,9.6
2018-12-16T15:16:18.620Z,14
2018-12-16T15:18:19.313Z,11.8
2018-12-16T15:20:18.935Z,14.7
2018-12-16T15:22:19.567Z,13.1
2018-12-16T15:24:19.172Z,14.5
2018-12-16T15:26:19.387Z,13.9
2018-12-16T15:28:19.010Z,12.8
2018-12-16T15:30:18.632Z,16.1
2018-12-16T15:32:19.257Z,13.3
2018-12-16T15:34:18.883Z,17.3
2018-12-16T15:36:19.133Z,13.1
2018-12-16T15:38:18.755Z,11.5
2018-12-16T15:40:18.828Z,12.7
2018-12-16T15:42:19.440Z,12.9
2018-12-16T15:44:19.081Z,15.5
2018-12-16T15:46:18.812Z,11
2018-12-16T15:48:19.404Z,15.4
2018-12-16T15:50:19.035Z,15.8
2018-12-16T15:52:18.647Z,14.6
2018-12-16T15:54:19.271Z,16.9
2018-12-16T15:56:19.511Z,10.7
2018-12-16T15:58:19.124Z,13.5
2018-12-16T16:00:18.832Z,15.5
2018-12-16T16:02:19.429Z,14.8
2018-12-16T16:04:19.031Z,15.1
2018-12-16T16:06:19.292Z,17.5
2018-12-16T16:08:18.924Z,13.5
2018-12-16T16:10:19.018Z,11.5
2018-12-16T16:12:18.628Z,16.8
2018-12-16T16:14:19.251Z,13
2018-12-16T16:16:19.037Z,15.9
2018-12-16T16:18:18.722Z,13.8
2018-12-16T16:20:19.427Z,15.1
2018-12-16T16:22:19.050Z,14.4
2018-12-16T16:24:18.702Z,15.6
2018-12-16T16:26:19.464Z,17.6
2018-12-16T16:28:19.089Z,15.8
2018-12-16T16:30:18.705Z,12.9
2018-12-16T16:32:19.324Z,12.3
2018-12-16T16:34:18.956Z,13.3
2018-12-16T16:36:19.238Z,14.5
2018-12-16T16:38:18.853Z,12.7
2018-12-16T16:40:19.030Z,13.2
2018-12-16T16:42:18.623Z,18.5
2018-12-16T16:44:19.266Z,22.7
2018-12-16T16:46:19.491Z,20.6
2018-12-16T16:48:19.086Z,17
2018-12-16T16:50:18.732Z,19.7
2018-12-16T16:52:19.055Z,15.4
2018-12-16T16:54:18.662Z,15.6
2018-12-16T16:56:23.236Z,14
2018-12-16T16:58:18.837Z,15.5
2018-12-16T17:00:19.479Z,13.7
2018-12-16T17:02:19.074Z,13.2
2018-12-16T17:04:18.682Z,15.3
2018-12-16T17:06:18.989Z,16.2
2018-12-16T17:08:18.604Z,15.8
2018-12-16T17:10:18.697Z,15.4
2018-12-16T17:12:19.377Z,15.1
2018-12-16T17:14:18.987Z,20.1
2018-12-16T17:16:19.180Z,14.2
2018-12-16T17:18:18.871Z,11.9
2018-12-16T17:20:19.558Z,14.8
2018-12-16T17:22:19.204Z,16.5
2018-12-16T17:24:18.831Z,14.5
2018-12-16T17:26:19.072Z,14.6
2018-12-16T17:28:18.694Z,16.3
2018-12-16T17:30:19.317Z,11.9
2018-12-16T17:32:18.937Z,18.5
2018-12-16T17:34:19.536Z,13.7
2018-12-16T17:36:19.293Z,10.1
2018-12-16T17:38:18.928Z,13.2
2018-12-16T17:40:19.003Z,12.1
2018-12-16T17:42:18.588Z,12.5
2018-12-16T17:44:19.214Z,12.9
2018-12-16T17:46:18.960Z,17.5
2018-12-16T17:48:18.567Z,13.2
2018-12-16T17:50:19.217Z,20.7
2018-12-16T17:52:18.858Z,11.1
2018-12-16T17:54:19.479Z,16.9
2018-12-16T17:56:18.735Z,17.1
2018-12-16T17:58:19.368Z,25.1
2018-12-16T18:00:19.019Z,13.7
2018-12-16T18:02:18.660Z,21.7
2018-12-16T18:04:19.282Z,12.2
2018-12-16T18:06:19.135Z,13.8
2018-12-16T18:08:18.742Z,18.5
2018-12-16T18:10:18.791Z,16.1
2018-12-16T18:12:19.429Z,20.5
2018-12-16T18:14:19.012Z,19.6
2018-12-16T18:16:19.288Z,15.5
2018-12-16T18:18:18.991Z,22.7
2018-12-16T18:20:18.624Z,17.5
2018-12-16T18:22:19.263Z,12.2
2018-12-16T18:24:18.891Z,19.4
2018-12-16T18:26:18.627Z,14.2
2018-12-16T18:28:19.227Z,16.1
2018-12-16T18:30:18.832Z,9.6
2018-12-16T18:32:19.446Z,18.4
2018-12-16T18:34:19.125Z,14.2
2018-12-16T18:36:19.403Z,14.4
2018-12-16T18:38:19.027Z,18.3
2018-12-16T18:40:19.120Z,16.6
2018-12-16T18:42:18.728Z,30
2018-12-16T18:44:19.318Z,11.6
2018-12-16T18:46:19.561Z,16.5
2018-12-16T18:48:19.173Z,20.2
2018-12-16T18:50:18.851Z,13.9
2018-12-16T18:52:19.483Z,18.5
2018-12-16T18:54:19.100Z,13.4
2018-12-16T18:56:18.554Z,11.3
2018-12-16T18:58:19.200Z,12.5
2018-12-16T19:00:18.833Z,16.5
2018-12-16T19:02:19.440Z,10.6
2018-12-16T19:04:19.076Z,11.4
2018-12-16T19:06:18.804Z,14.6
2018-12-16T19:08:19.424Z,14.9
2018-12-16T19:10:19.496Z,14.4
2018-12-16T19:12:19.102Z,13.1
2018-12-16T19:14:18.750Z,16.8
2018-12-16T19:16:18.991Z,13.8
2018-12-16T19:18:18.705Z,13.7
2018-12-16T19:20:19.404Z,16.7
2018-12-16T19:22:19.272Z,12.3
2018-12-16T19:24:18.898Z,21.1
2018-12-16T19:26:19.552Z,15
2018-12-16T19:28:19.178Z,13.9
2018-12-16T19:30:18.785Z,11.2
2018-12-16T19:32:19.435Z,15.4
2018-12-16T19:34:19.069Z,20.9
2018-12-16T19:36:19.456Z,15.3
2018-12-16T19:38:19.052Z,19.5
2018-12-16T19:40:19.301Z,13.5
2018-12-16T19:42:18.924Z,15.9
2018-12-16T19:44:19.536Z,14.1
2018-12-16T19:46:18.849Z,17.1
2018-12-16T19:48:19.466Z,14.7
2018-12-16T19:50:19.129Z,19.4
2018-12-16T19:52:18.784Z,13
2018-12-16T19:54:19.454Z,11.6
2018-12-16T19:56:19.305Z,15
2018-12-16T19:58:18.926Z,15.7
2018-12-16T20:00:19.561Z,17
2018-12-16T20:02:19.207Z,18.9
2018-12-16T20:04:18.828Z,16.1
2018-12-16T20:06:19.053Z,17.1
2018-12-16T20:08:18.693Z,19.5
2018-12-16T20:10:18.836Z,17.5
2018-12-16T20:12:19.450Z,15.6
2018-12-16T20:14:19.071Z,18.1
2018-12-16T20:16:19.278Z,16.7
2018-12-16T20:18:18.979Z,19.6
2018-12-16T20:20:18.615Z,24.5
2018-12-16T20:22:19.252Z,13.5
2018-12-16T20:24:18.877Z,22.2
2018-12-16T20:26:18.603Z,16.6
2018-12-16T20:28:19.239Z,20.4
2018-12-16T20:30:18.888Z,18.6
2018-12-16T20:32:19.495Z,14.2
2018-12-16T20:34:19.108Z,16.4
2018-12-16T20:36:19.347Z,18.1
2018-12-16T20:38:18.985Z,20.5
2018-12-16T20:40:19.104Z,15.2
2018-12-16T20:42:18.757Z,17.9
2018-12-16T20:44:19.384Z,18.2
2018-12-16T20:46:18.610Z,17.7
2018-12-16T20:48:19.209Z,14.9
2018-12-16T20:50:18.861Z,15.8
2018-12-16T20:52:19.562Z,19
2018-12-16T20:54:19.207Z,19
2018-12-16T20:56:19.421Z,19.9
2018-12-16T20:58:19.038Z,17.2
2018-12-16T21:00:18.673Z,19.7
2018-12-16T21:02:19.302Z,17.4
2018-12-16T21:04:18.915Z,20.2
2018-12-16T21:06:18.663Z,16.4
2018-12-16T21:08:19.292Z,17.1
2018-12-16T21:10:19.360Z,16.7
2018-12-16T21:12:18.970Z,16.1
2018-12-16T21:14:18.609Z,15.4
2018-12-16T21:16:19.381Z,17.5
2018-12-16T21:18:19.098Z,15.9
2018-12-16T21:20:18.727Z,18.2
2018-12-16T21:22:19.333Z,16.3
2018-12-16T21:24:19.069Z,18.1
2018-12-16T21:26:19.368Z,17.8
2018-12-16T21:28:18.969Z,17.1
2018-12-16T21:30:18.612Z,18.3
2018-12-16T21:32:19.226Z,18.4
2018-12-16T21:34:18.842Z,17.6
2018-12-16T21:36:18.628Z,17.9
2018-12-16T21:38:19.254Z,25.3
2018-12-16T21:40:19.326Z,18.3
2018-12-16T21:42:18.975Z,18
2018-12-16T21:44:18.630Z,19.3
2018-12-16T21:46:18.870Z,19.4
2018-12-16T21:48:19.523Z,18.5
2018-12-16T21:50:19.190Z,18.9
2018-12-16T21:52:18.819Z,22.1
2018-12-16T21:54:19.458Z,20.2
2018-12-16T21:56:18.734Z,19.4
2018-12-16T21:58:19.402Z,17
2018-12-16T22:00:19.034Z,17.5
2018-12-16T22:02:18.659Z,24
2018-12-16T22:04:19.279Z,18.3
2018-12-16T22:06:19.057Z,24.7
2018-12-16T22:08:18.697Z,17.4
2018-12-16T22:10:18.811Z,22.1
2018-12-16T22:12:19.434Z,20.1
2018-12-16T22:14:19.104Z,25.5
2018-12-16T22:16:18.988Z,15.6
2018-12-16T22:18:18.680Z,14.6
2018-12-16T22:20:19.331Z,17.3
2018-12-16T22:22:18.952Z,20.6
2018-12-16T22:24:18.583Z,16.4
2018-12-16T22:26:19.114Z,18.2
2018-12-16T22:28:18.739Z,17.4
2018-12-16T22:30:19.375Z,19.4
2018-12-16T22:32:19.012Z,17.7
2018-12-16T22:34:18.646Z,15.5
2018-12-16T22:36:18.761Z,23.4
2018-12-16T22:38:19.359Z,21.3
2018-12-16T22:40:19.410Z,19.1
2018-12-16T22:42:19.019Z,18.5
2018-12-16T22:44:18.626Z,19.3
2018-12-16T22:46:18.747Z,22.1
2018-12-16T22:48:19.367Z,20.5
2018-12-16T22:50:19.004Z,19.6
2018-12-16T22:52:18.624Z,22.5
2018-12-16T22:54:19.229Z,19.6
2018-12-16T22:56:18.621Z,16.7
2018-12-16T22:58:19.270Z,17
2018-12-16T23:00:18.920Z,22.1
2018-12-16T23:02:19.556Z,20.1
2018-12-16T23:04:19.181Z,22.2
2018-12-16T23:06:19.250Z,25.5
2018-12-16T23:08:18.852Z,22.2
2018-12-16T23:10:18.999Z,18.2
2018-12-16T23:12:18.622Z,25.9
2018-12-16T23:14:19.245Z,25.9
2018-12-16T23:16:19.034Z,23.8
2018-12-16T23:18:18.750Z,19.3
2018-12-16T23:20:19.375Z,19.3
2018-12-16T23:22:19.016Z,20.1
2018-12-16T23:24:18.607Z,18
2018-12-16T23:26:19.462Z,22.5
2018-12-16T23:28:19.134Z,17.6
2018-12-16T23:30:18.761Z,16.3
2018-12-16T23:32:19.386Z,21
2018-12-16T23:34:19.023Z,20.2
2018-12-16T23:36:19.223Z,24.1
2018-12-16T23:38:18.831Z,21.7
2018-12-16T23:40:18.951Z,17.8
2018-12-16T23:42:18.570Z,18.2
2018-12-16T23:44:19.210Z,28.7
2018-12-16T23:46:19.063Z,21.2
2018-12-16T23:48:18.684Z,20.7
2018-12-16T23:50:19.335Z,22.6
2018-12-16T23:52:18.994Z,22.6
2018-12-16T23:54:18.605Z,24.9
2018-12-16T23:56:19.093Z,23.8
2018-12-16T23:58:18.768Z,27.9
